createdAt,value
2017-11-10T00:02:03.109Z,101299.39
2017-11-10T00:04:28.898Z,101303.66
2017-11-10T00:06:54.706Z,101304.49
2017-11-10T00:09:20.541Z,101299.00
2017-11-10T00:11:46.341Z,101295.59
2017-11-10T00:14:12.178Z,101288.89
2017-11-10T00:16:37.989Z,101294.02
2017-11-10T00:19:04.933Z,101283.84
2017-11-10T00:21:32.082Z,101277.22
2017-11-10T00:23:57.869Z,101271.84
2017-11-10T00:26:23.685Z,101272.05
2017-11-10T00:28:49.462Z,101267.04
2017-11-10T00:31:16.106Z,101268.70
2017-11-10T00:33:41.946Z,101272.16
2017-11-10T00:36:08.632Z,101273.85
2017-11-10T00:38:34.410Z,101273.31
2017-11-10T00:41:01.103Z,101274.92
2017-11-10T00:43:26.916Z,101273.72
2017-11-10T00:45:53.610Z,101277.34
2017-11-10T00:48:20.333Z,101273.85
2017-11-10T00:50:47.146Z,101275.40
2017-11-10T00:53:14.004Z,101271.66
2017-11-10T00:55:40.264Z,101274.36
2017-11-10T00:58:06.077Z,101268.61
2017-11-10T01:00:32.726Z,101266.20
2017-11-10T01:02:58.502Z,101265.57
2017-11-10T01:05:25.089Z,101271.91
2017-11-10T01:07:50.914Z,101267.94
2017-11-10T01:13:12.427Z,101262.78
2017-11-10T01:15:38.221Z,101261.38
2017-11-10T01:18:04.203Z,101247.89
2017-11-10T01:20:29.994Z,101248.73
2017-11-10T01:22:55.789Z,101237.88
2017-11-10T01:25:21.587Z,101241.08
2017-11-10T01:27:47.416Z,101240.55
2017-11-10T01:30:13.269Z,101236.69
2017-11-10T01:32:39.077Z,101231.69
2017-11-10T01:35:06.003Z,101228.89
2017-11-10T01:37:31.794Z,101224.63
2017-11-10T01:39:57.677Z,101233.57
2017-11-10T01:42:23.495Z,101230.50
2017-11-10T01:44:49.303Z,101230.22
2017-11-10T01:47:15.128Z,101232.16
2017-11-10T01:49:42.868Z,101233.50
2017-11-10T01:52:08.700Z,101223.59
2017-11-10T01:54:34.493Z,101224.88
2017-11-10T01:57:00.292Z,101221.81
2017-11-10T01:59:26.079Z,101217.44
2017-11-10T02:01:51.886Z,101213.02
2017-11-10T02:04:17.680Z,101208.45
2017-11-10T02:06:43.478Z,101209.10
2017-11-10T02:09:09.304Z,101204.16
2017-11-10T02:11:35.101Z,101203.50
2017-11-10T02:14:00.888Z,101201.81
2017-11-10T02:16:26.689Z,101189.90
2017-11-10T02:18:52.482Z,101191.53
2017-11-10T02:21:18.274Z,101179.09
2017-11-10T02:23:44.059Z,101179.30
2017-11-10T02:26:09.849Z,101170.33
2017-11-10T02:28:35.656Z,101169.00
2017-11-10T02:31:01.446Z,101165.87
2017-11-10T02:33:27.236Z,101163.22
2017-11-10T02:35:53.033Z,101163.50
2017-11-10T02:38:18.859Z,101155.52
2017-11-10T02:40:44.710Z,101152.86
2017-11-10T02:43:10.520Z,101142.55
2017-11-10T02:45:36.323Z,101132.81
2017-11-10T02:48:02.110Z,101135.40
2017-11-10T02:50:27.913Z,101133.47
2017-11-10T02:52:53.832Z,101127.63
2017-11-10T02:55:19.626Z,101128.94
2017-11-10T02:57:45.414Z,101127.31
2017-11-10T03:00:11.211Z,101125.61
2017-11-10T03:02:37.005Z,101131.71
2017-11-10T03:05:02.809Z,101121.91
2017-11-10T03:07:28.699Z,101122.15
2017-11-10T03:09:54.496Z,101117.94
2017-11-10T03:12:20.353Z,101113.16
2017-11-10T03:14:46.170Z,101120.17
2017-11-10T03:17:11.961Z,101116.65
2017-11-10T03:19:37.934Z,101101.70
2017-11-10T03:22:03.761Z,101093.84
2017-11-10T03:24:29.553Z,101088.55
2017-11-10T03:26:55.383Z,101079.89
2017-11-10T03:29:21.181Z,101084.44
2017-11-10T03:31:47.006Z,101075.75
2017-11-10T03:34:12.923Z,101073.83
2017-11-10T03:36:38.730Z,101072.78
2017-11-10T03:39:04.666Z,101065.09
2017-11-10T03:41:30.465Z,101060.30
2017-11-10T03:43:56.254Z,101064.03
2017-11-10T03:46:22.065Z,101059.95
2017-11-10T03:48:47.875Z,101063.09
2017-11-10T03:51:13.662Z,101056.33
2017-11-10T03:53:39.480Z,101064.42
2017-11-10T03:56:05.276Z,101067.03
2017-11-10T03:58:31.097Z,101065.25
2017-11-10T04:00:56.890Z,101056.64
2017-11-10T04:03:22.717Z,101056.99
2017-11-10T04:05:48.564Z,101058.49
2017-11-10T04:08:14.410Z,101057.72
2017-11-10T04:10:40.223Z,101059.29
2017-11-10T04:13:06.007Z,101054.17
2017-11-10T04:15:31.849Z,101054.69
2017-11-10T04:17:57.662Z,101049.28
2017-11-10T04:20:23.462Z,101051.07
2017-11-10T04:22:49.265Z,101040.44
2017-11-10T04:25:15.075Z,101047.30
2017-11-10T04:27:40.913Z,101047.23
2017-11-10T04:30:06.709Z,101041.13
2017-11-10T04:32:32.521Z,101045.17
2017-11-10T04:34:58.321Z,101042.98
2017-11-10T04:37:24.112Z,101038.76
2017-11-10T04:39:49.901Z,101042.00
2017-11-10T04:42:15.738Z,101036.21
2017-11-10T04:44:41.529Z,101029.41
2017-11-10T04:47:07.313Z,101037.61
2017-11-10T04:49:33.142Z,101038.83
2017-11-10T04:51:58.943Z,101034.13
2017-11-10T04:54:24.737Z,101028.51
2017-11-10T04:56:50.589Z,101029.20
2017-11-10T04:59:16.381Z,101024.88
2017-11-10T05:01:42.178Z,101019.09
2017-11-10T05:04:08.001Z,101023.07
2017-11-10T05:06:33.798Z,101023.38
2017-11-10T05:08:59.589Z,101030.98
2017-11-10T05:11:25.523Z,101028.34
2017-11-10T05:13:52.111Z,101034.68
2017-11-10T05:16:17.913Z,101029.55
2017-11-10T05:18:43.753Z,101018.50
2017-11-10T05:21:09.795Z,101017.66
2017-11-10T05:23:36.271Z,101014.91
2017-11-10T05:26:02.094Z,101014.81
2017-11-10T05:28:27.893Z,101016.03
2017-11-10T05:30:53.702Z,101016.13
2017-11-10T05:33:19.520Z,101014.17
2017-11-10T05:35:47.522Z,101011.80
2017-11-10T05:38:13.354Z,101017.00
2017-11-10T05:40:39.173Z,101013.75
2017-11-10T05:43:04.977Z,101011.38
2017-11-10T05:45:30.910Z,101016.02
2017-11-10T05:47:56.706Z,101003.92
2017-11-10T05:50:22.641Z,101006.30
2017-11-10T05:52:48.440Z,101004.06
2017-11-10T05:55:14.386Z,101003.13
2017-11-10T05:57:40.211Z,101006.75
2017-11-10T06:00:06.222Z,101006.30
2017-11-10T06:02:32.062Z,101009.23
2017-11-10T06:04:57.873Z,101010.55
2017-11-10T06:07:23.693Z,101002.45
2017-11-10T06:09:49.525Z,101013.16
2017-11-10T06:12:15.314Z,101005.84
2017-11-10T06:14:41.151Z,101009.68
2017-11-10T06:17:06.953Z,101003.71
2017-11-10T06:19:32.750Z,101004.65
2017-11-10T06:21:58.591Z,101007.02
2017-11-10T06:24:24.437Z,101007.09
2017-11-10T06:26:50.642Z,101003.82
2017-11-10T06:29:18.035Z,100999.50
2017-11-10T06:31:43.868Z,101000.44
2017-11-10T06:34:09.855Z,100985.37
2017-11-10T06:36:35.653Z,100995.63
2017-11-10T06:39:02.674Z,100987.30
2017-11-10T06:41:28.489Z,100983.52
2017-11-10T06:43:54.302Z,100983.73
2017-11-10T06:46:20.102Z,100979.77
2017-11-10T06:48:45.908Z,100988.83
2017-11-10T06:51:11.717Z,100976.47
2017-11-10T06:53:37.556Z,100975.30
2017-11-10T06:56:03.385Z,100971.48
2017-11-10T06:58:29.180Z,100966.33
2017-11-10T07:00:55.033Z,100956.75
2017-11-10T07:03:20.825Z,100963.86
2017-11-10T07:05:46.724Z,100956.30
2017-11-10T07:08:12.622Z,100963.69
2017-11-10T07:10:38.591Z,100958.00
2017-11-10T07:13:04.466Z,100954.93
2017-11-10T07:18:19.073Z,100945.05
2017-11-10T07:20:44.866Z,100954.18
2017-11-10T07:23:10.831Z,100948.86
2017-11-10T07:25:36.626Z,100951.30
2017-11-10T07:28:02.430Z,100946.73
2017-11-10T07:30:29.366Z,100948.47
2017-11-10T07:32:55.244Z,100951.47
2017-11-10T07:35:21.047Z,100943.77
2017-11-10T07:37:46.981Z,100933.73
2017-11-10T07:40:12.823Z,100944.29
2017-11-10T07:42:38.636Z,100948.16
2017-11-10T07:45:04.454Z,100943.20
2017-11-10T07:47:30.282Z,100939.78
2017-11-10T07:49:56.198Z,100931.39
2017-11-10T07:52:21.986Z,100927.62
2017-11-10T07:54:47.823Z,100922.73
2017-11-10T07:57:13.657Z,100914.78
2017-11-10T07:59:39.473Z,100915.63
2017-11-10T08:02:05.398Z,100901.13
2017-11-10T08:04:31.301Z,100899.95
2017-11-10T08:06:58.294Z,100908.67
2017-11-10T08:09:24.191Z,100907.80
2017-11-10T08:11:50.010Z,100903.92
2017-11-10T08:14:15.798Z,100899.03
2017-11-10T08:16:41.634Z,100897.22
2017-11-10T08:19:07.414Z,100898.47
2017-11-10T08:21:33.216Z,100885.05
2017-11-10T08:23:59.066Z,100889.95
2017-11-10T08:26:24.849Z,100882.15
2017-11-10T08:28:50.746Z,100876.92
2017-11-10T08:31:16.542Z,100871.20
2017-11-10T08:33:42.335Z,100864.51
2017-11-10T08:36:08.130Z,100861.44
2017-11-10T08:38:33.929Z,100855.88
2017-11-10T08:40:59.770Z,100847.95
2017-11-10T08:43:25.754Z,100846.19
2017-11-10T08:45:51.570Z,100837.86
2017-11-10T08:48:17.359Z,100833.34
2017-11-10T08:50:43.151Z,100832.03
2017-11-10T08:53:08.940Z,100818.88
2017-11-10T08:55:34.733Z,100820.92
2017-11-10T08:58:00.569Z,100813.81
2017-11-10T09:00:26.360Z,100814.41
2017-11-10T09:02:52.371Z,100812.59
2017-11-10T09:05:18.179Z,100797.98
2017-11-10T09:07:43.989Z,100803.20
2017-11-10T09:10:09.784Z,100791.20
2017-11-10T09:12:35.572Z,100790.38
2017-11-10T09:15:01.365Z,100781.17
2017-11-10T09:17:27.212Z,100781.16
2017-11-10T09:20:09.577Z,100783.00
2017-11-10T09:22:35.583Z,100784.97
2017-11-10T09:25:01.388Z,100783.41
2017-11-10T09:27:28.172Z,100781.02
2017-11-10T09:29:54.063Z,100779.37
2017-11-10T09:32:27.952Z,100771.00
2017-11-10T09:34:56.778Z,100765.19
2017-11-10T09:37:22.682Z,100763.93
2017-11-10T09:39:51.311Z,100746.23
2017-11-10T09:42:23.295Z,100746.99
2017-11-10T09:44:55.152Z,100734.65
2017-11-10T09:50:26.134Z,100713.19
2017-11-10T09:55:56.736Z,100709.88
2017-11-10T09:58:28.530Z,100716.45
2017-11-10T10:00:58.317Z,100717.20
2017-11-10T10:03:31.035Z,100705.23
2017-11-10T10:05:56.849Z,100706.83
2017-11-10T10:11:29.899Z,100716.33
2017-11-10T10:14:01.806Z,100708.58
2017-11-10T10:16:33.534Z,100706.56
2017-11-10T10:19:03.281Z,100701.37
2017-11-10T10:21:35.265Z,100686.73
2017-11-10T10:24:01.152Z,100683.66
2017-11-10T10:26:28.851Z,100678.09
2017-11-10T10:28:54.788Z,100673.48
2017-11-10T10:31:20.613Z,100663.75
2017-11-10T10:33:46.413Z,100657.95
2017-11-10T10:36:12.282Z,100656.82
2017-11-10T10:38:38.078Z,100661.09
2017-11-10T10:41:03.878Z,100648.94
2017-11-10T10:43:29.682Z,100650.77
2017-11-10T10:45:55.482Z,100637.59
2017-11-10T10:48:21.284Z,100634.94
2017-11-10T10:50:47.101Z,100632.84
2017-11-10T10:53:12.923Z,100630.24
2017-11-10T10:55:38.803Z,100615.41
2017-11-10T10:58:04.777Z,100614.91
2017-11-10T11:00:30.757Z,100604.95
2017-11-10T11:02:56.581Z,100593.44
2017-11-10T11:05:22.376Z,100586.93
2017-11-10T11:07:48.166Z,100578.22
2017-11-10T11:10:13.953Z,100569.86
2017-11-10T11:12:39.739Z,100568.11
2017-11-10T11:15:05.543Z,100568.83
2017-11-10T11:17:31.433Z,100567.92
2017-11-10T11:19:57.238Z,100564.78
2017-11-10T11:22:23.030Z,100564.22
2017-11-10T11:24:48.823Z,100553.69
2017-11-10T11:27:14.762Z,100543.84
2017-11-10T11:29:40.687Z,100535.25
2017-11-10T11:32:06.472Z,100535.13
2017-11-10T11:34:32.261Z,100528.02
2017-11-10T11:36:58.046Z,100532.33
2017-11-10T11:39:24.172Z,100529.33
2017-11-10T11:41:50.026Z,100531.91
2017-11-10T11:44:15.817Z,100521.47
2017-11-10T11:46:41.617Z,100514.61
2017-11-10T11:49:07.567Z,100506.47
2017-11-10T11:51:33.360Z,100490.48
2017-11-10T11:53:59.150Z,100484.34
2017-11-10T11:56:24.954Z,100471.30
2017-11-10T11:58:50.744Z,100469.14
2017-11-10T12:01:16.583Z,100462.91
2017-11-10T12:03:42.389Z,100465.86
2017-11-10T12:06:08.182Z,100458.27
2017-11-10T12:08:33.978Z,100460.76
2017-11-10T12:10:59.802Z,100460.08
2017-11-10T12:13:25.590Z,100454.70
2017-11-10T12:15:51.425Z,100462.39
2017-11-10T12:18:17.221Z,100449.83
2017-11-10T12:20:43.084Z,100447.92
2017-11-10T12:23:08.963Z,100452.41
2017-11-10T12:25:34.965Z,100450.39
2017-11-10T12:28:00.833Z,100440.55
2017-11-10T12:30:26.638Z,100431.70
2017-11-10T12:32:52.430Z,100429.67
2017-11-10T12:35:18.286Z,100425.72
2017-11-10T12:37:44.076Z,100425.41
2017-11-10T12:40:09.902Z,100418.21
2017-11-10T12:42:35.794Z,100419.81
2017-11-10T12:45:01.618Z,100407.67
2017-11-10T12:47:27.417Z,100407.56
2017-11-10T12:49:53.215Z,100399.33
2017-11-10T12:52:19.175Z,100401.77
2017-11-10T12:54:44.979Z,100402.38
2017-11-10T12:57:10.781Z,100402.23
2017-11-10T12:59:36.658Z,100398.97
2017-11-10T13:02:02.562Z,100391.25
2017-11-10T13:04:28.343Z,100382.49
2017-11-10T13:06:54.158Z,100380.28
2017-11-10T13:09:19.950Z,100377.92
2017-11-10T13:11:45.886Z,100353.91
2017-11-10T13:14:11.781Z,100357.05
2017-11-10T13:16:37.618Z,100339.55
2017-11-10T13:19:03.424Z,100336.05
2017-11-10T13:21:29.267Z,100333.13
2017-11-10T13:23:55.074Z,100335.93
2017-11-10T13:26:20.885Z,100342.68
2017-11-10T13:28:46.695Z,100334.94
2017-11-10T13:31:12.532Z,100339.61
2017-11-10T13:33:38.351Z,100339.13
2017-11-10T13:36:04.143Z,100335.38
2017-11-10T13:38:29.942Z,100330.39
2017-11-10T13:40:55.738Z,100323.88
2017-11-10T13:43:21.538Z,100315.97
2017-11-10T13:45:47.334Z,100312.36
2017-11-10T13:48:13.186Z,100317.35
2017-11-10T13:50:38.975Z,100306.48
2017-11-10T13:53:04.781Z,100295.55
2017-11-10T13:55:30.584Z,100304.83
2017-11-10T13:57:56.521Z,100301.86
2017-11-10T14:00:22.357Z,100292.90
2017-11-10T14:02:48.152Z,100293.45
2017-11-10T14:05:14.075Z,100285.98
2017-11-10T14:07:39.889Z,100289.78
2017-11-10T14:10:05.854Z,100271.33
2017-11-10T14:12:31.678Z,100278.38
2017-11-10T14:14:57.577Z,100282.59
2017-11-10T14:17:23.384Z,100269.93
2017-11-10T14:19:49.166Z,100263.83
2017-11-10T14:22:14.961Z,100261.93
2017-11-10T14:24:40.744Z,100257.25
2017-11-10T14:27:06.582Z,100253.39
2017-11-10T14:29:32.375Z,100248.16
2017-11-10T14:31:58.174Z,100244.26
2017-11-10T14:34:23.965Z,100244.37
2017-11-10T14:36:49.764Z,100247.54
2017-11-10T14:39:15.545Z,100234.47
2017-11-10T14:41:41.334Z,100234.59
2017-11-10T14:44:07.181Z,100235.55
2017-11-10T14:46:32.970Z,100228.05
2017-11-10T14:48:58.757Z,100227.72
2017-11-10T14:51:24.554Z,100222.55
2017-11-10T14:53:50.353Z,100231.81
2017-11-10T14:56:16.141Z,100223.09
2017-11-10T14:58:41.983Z,100218.16
2017-11-10T15:01:07.777Z,100212.61
2017-11-10T15:03:33.561Z,100199.86
2017-11-10T15:05:59.369Z,100196.45
2017-11-10T15:08:25.150Z,100186.40
2017-11-10T15:10:50.961Z,100181.09
2017-11-10T15:13:16.764Z,100186.81
2017-11-10T15:15:42.557Z,100181.92
2017-11-10T15:18:12.127Z,100185.86
2017-11-10T15:20:37.972Z,100171.38
2017-11-10T15:23:03.764Z,100166.48
2017-11-10T15:25:29.552Z,100176.42
2017-11-10T15:27:55.342Z,100159.11
2017-11-10T15:30:21.154Z,100145.41
2017-11-10T15:32:46.928Z,100157.42
2017-11-10T15:35:12.769Z,100152.87
2017-11-10T15:37:38.562Z,100142.19
2017-11-10T15:40:04.341Z,100144.50
2017-11-10T15:42:30.144Z,100139.40
2017-11-10T15:44:55.945Z,100146.11
2017-11-10T15:47:21.786Z,100130.38
2017-11-10T15:49:47.593Z,100123.30
2017-11-10T15:52:13.394Z,100115.13
2017-11-10T15:54:39.221Z,100115.30
2017-11-10T15:57:05.026Z,100114.14
2017-11-10T15:59:30.846Z,100108.76
2017-11-10T16:01:56.658Z,100100.10
2017-11-10T16:04:22.502Z,100103.34
2017-11-10T16:06:48.283Z,100085.16
2017-11-10T16:09:14.113Z,100098.81
2017-11-10T16:11:39.905Z,100097.78
2017-11-10T16:14:05.699Z,100086.77
2017-11-10T16:16:31.488Z,100083.78
2017-11-10T16:18:57.285Z,100084.16
2017-11-10T16:21:23.070Z,100074.05
2017-11-10T16:23:48.876Z,100072.61
2017-11-10T16:26:14.701Z,100056.92
2017-11-10T16:28:40.487Z,100060.94
2017-11-10T16:31:06.318Z,100052.20
2017-11-10T16:33:32.113Z,100050.95
2017-11-10T16:35:57.942Z,100043.55
2017-11-10T16:38:23.726Z,100042.80
2017-11-10T16:40:49.561Z,100034.22
2017-11-10T16:43:15.336Z,100031.95
2017-11-10T16:45:41.105Z,100027.18
2017-11-10T16:48:06.901Z,100043.21
2017-11-10T16:50:32.692Z,100038.82
2017-11-10T16:52:58.516Z,100030.42
2017-11-10T16:55:24.297Z,100039.03
2017-11-10T16:57:50.278Z,100042.59
2017-11-10T17:00:17.888Z,100028.05
2017-11-10T17:02:43.819Z,100032.86
2017-11-10T17:05:09.630Z,100029.38
2017-11-10T17:07:35.413Z,100038.33
2017-11-10T17:10:01.205Z,100027.06
2017-11-10T17:12:27.123Z,100020.69
2017-11-10T17:14:52.937Z,100014.93
2017-11-10T17:17:18.722Z,100007.44
2017-11-10T17:19:44.521Z,100022.25
2017-11-10T17:22:10.306Z,100027.10
2017-11-10T17:24:36.126Z,100014.80
2017-11-10T17:27:01.930Z,100022.42
2017-11-10T17:29:27.710Z,100018.85
2017-11-10T17:31:53.514Z,100024.87
2017-11-10T17:34:19.301Z,100024.98
2017-11-10T17:36:45.092Z,100025.48
2017-11-10T17:39:10.922Z,100032.55
2017-11-10T17:41:36.706Z,100031.31
2017-11-10T17:44:02.515Z,100024.27
2017-11-10T17:46:28.314Z,100037.86
2017-11-10T17:48:54.123Z,100035.39
2017-11-10T17:51:20.037Z,100028.17
2017-11-10T17:53:45.840Z,100021.38
2017-11-10T17:56:11.631Z,100029.88
2017-11-10T17:58:37.460Z,100032.27
2017-11-10T18:01:03.331Z,100037.94
2017-11-10T18:03:29.125Z,100041.00
2017-11-10T18:05:54.974Z,100041.50
2017-11-10T18:08:20.778Z,100031.33
2017-11-10T18:10:46.654Z,100035.83
2017-11-10T18:13:12.475Z,100037.73
2017-11-10T18:15:38.327Z,100044.41
2017-11-10T18:18:04.127Z,100047.47
2017-11-10T18:20:29.913Z,100060.89
2017-11-10T18:22:55.715Z,100066.18
2017-11-10T18:25:21.502Z,100066.34
2017-11-10T18:27:47.340Z,100078.16
2017-11-10T18:30:13.129Z,100090.78
2017-11-10T18:32:39.057Z,100101.80
2017-11-10T18:35:04.866Z,100100.51
2017-11-10T18:37:30.822Z,100111.33
2017-11-10T18:39:56.654Z,100117.50
2017-11-10T18:42:22.546Z,100119.60
2017-11-10T18:44:48.340Z,100105.23
2017-11-10T18:47:14.211Z,100103.83
2017-11-10T18:49:40.102Z,100100.31
2017-11-10T18:52:05.912Z,100082.25
2017-11-10T18:54:32.591Z,100099.60
2017-11-10T18:56:58.576Z,100106.07
2017-11-10T18:59:24.371Z,100087.10
2017-11-10T19:01:50.166Z,100084.45
2017-11-10T19:04:15.968Z,100093.97
2017-11-10T19:06:41.759Z,100099.23
2017-11-10T19:09:07.587Z,100094.22
2017-11-10T19:11:33.502Z,100094.97
2017-11-10T19:13:59.314Z,100096.16
2017-11-10T19:16:25.246Z,100095.63
2017-11-10T19:18:51.070Z,100098.00
2017-11-10T19:21:16.868Z,100095.76
2017-11-10T19:23:42.674Z,100100.59
2017-11-10T19:26:08.465Z,100107.14
2017-11-10T19:28:34.276Z,100123.34
2017-11-10T19:31:00.091Z,100122.71
2017-11-10T19:33:25.909Z,100127.15
2017-11-10T19:35:51.707Z,100128.27
2017-11-10T19:38:17.508Z,100137.62
2017-11-10T19:40:43.379Z,100131.70
2017-11-10T19:43:09.212Z,100134.31
2017-11-10T19:45:35.012Z,100145.03
2017-11-10T19:48:00.806Z,100151.66
2017-11-10T19:50:26.651Z,100136.25
2017-11-10T19:52:52.476Z,100147.27
2017-11-10T19:55:20.331Z,100143.71
2017-11-10T19:57:46.134Z,100134.97
2017-11-10T20:00:11.940Z,100137.12
2017-11-10T20:02:37.779Z,100152.37
2017-11-10T20:05:03.589Z,100150.05
2017-11-10T20:07:29.401Z,100159.79
2017-11-10T20:09:55.196Z,100159.91
2017-11-10T20:12:21.037Z,100150.59
2017-11-10T20:14:47.073Z,100156.39
2017-11-10T20:17:12.927Z,100155.48
2017-11-10T20:19:38.735Z,100158.28
2017-11-10T20:22:04.543Z,100151.12
2017-11-10T20:24:30.342Z,100160.27
2017-11-10T20:26:56.178Z,100168.84
2017-11-10T20:29:22.377Z,100173.23
2017-11-10T20:31:48.182Z,100178.98
2017-11-10T20:34:13.976Z,100180.20
2017-11-10T20:36:39.770Z,100178.74
2017-11-10T20:39:05.794Z,100180.52
2017-11-10T20:41:31.598Z,100181.48
2017-11-10T20:43:57.460Z,100180.48
2017-11-10T20:46:23.267Z,100179.73
2017-11-10T20:48:49.195Z,100188.46
2017-11-10T20:51:15.086Z,100187.30
2017-11-10T20:53:41.029Z,100177.25
2017-11-10T20:56:06.886Z,100183.30
2017-11-10T20:58:32.709Z,100187.40
2017-11-10T21:00:58.518Z,100191.16
2017-11-10T21:03:24.424Z,100193.98
2017-11-10T21:05:50.242Z,100194.81
2017-11-10T21:08:16.080Z,100196.87
2017-11-10T21:10:41.926Z,100192.52
2017-11-10T21:13:07.877Z,100195.63
2017-11-10T21:15:33.769Z,100192.06
2017-11-10T21:17:59.586Z,100190.95
2017-11-10T21:20:25.407Z,100203.35
2017-11-10T21:22:51.264Z,100205.34
2017-11-10T21:25:17.068Z,100205.66
2017-11-10T21:27:42.962Z,100200.02
2017-11-10T21:30:09.167Z,100195.63
2017-11-10T21:32:34.973Z,100193.71
2017-11-10T21:35:00.782Z,100211.14
2017-11-10T21:37:26.592Z,100208.75
2017-11-10T21:39:52.433Z,100209.38
2017-11-10T21:42:18.249Z,100202.06
2017-11-10T21:44:44.094Z,100206.69
2017-11-10T21:47:09.905Z,100202.59
2017-11-10T21:49:36.551Z,100205.11
2017-11-10T21:52:02.363Z,100206.34
2017-11-10T21:54:28.217Z,100213.69
2017-11-10T21:56:54.033Z,100207.59
2017-11-10T21:59:19.844Z,100203.24
2017-11-10T22:01:45.651Z,100204.70
2017-11-10T22:04:11.446Z,100208.92
2017-11-10T22:06:37.254Z,100207.55
2017-11-10T22:09:03.066Z,100205.56
2017-11-10T22:11:28.863Z,100217.50
2017-11-10T22:13:54.716Z,100196.59
2017-11-10T22:16:20.529Z,100204.88
2017-11-10T22:18:46.366Z,100209.10
2017-11-10T22:21:12.168Z,100196.01
2017-11-10T22:23:38.015Z,100204.13
2017-11-10T22:26:03.810Z,100204.58
2017-11-10T22:28:29.616Z,100206.72
2017-11-10T22:30:55.454Z,100208.14
2017-11-10T22:33:21.261Z,100214.93
2017-11-10T22:35:47.063Z,100211.53
2017-11-10T22:38:12.858Z,100216.17
2017-11-10T22:40:38.676Z,100229.17
2017-11-10T22:43:04.486Z,100222.44
2017-11-10T22:45:30.290Z,100222.09
2017-11-10T22:47:56.098Z,100223.77
2017-11-10T22:50:21.922Z,100227.66
2017-11-10T22:52:47.762Z,100232.73
2017-11-10T22:55:13.565Z,100226.23
2017-11-10T22:57:39.357Z,100230.28
2017-11-10T23:00:05.168Z,100228.75
2017-11-10T23:02:31.008Z,100222.36
2017-11-10T23:04:56.826Z,100229.50
2017-11-10T23:07:23.592Z,100226.94
2017-11-10T23:09:49.422Z,100232.14
2017-11-10T23:12:15.241Z,100237.04
2017-11-10T23:14:41.045Z,100231.66
2017-11-10T23:17:06.843Z,100238.36
2017-11-10T23:19:32.702Z,100235.02
2017-11-10T23:21:58.522Z,100238.39
2017-11-10T23:24:24.334Z,100232.00
2017-11-10T23:26:50.182Z,100238.34
2017-11-10T23:29:15.979Z,100237.75
2017-11-10T23:31:41.773Z,100238.45
2017-11-10T23:34:07.683Z,100242.16
2017-11-10T23:36:33.496Z,100238.19
2017-11-10T23:38:59.291Z,100242.00
2017-11-10T23:41:25.089Z,100237.93
2017-11-10T23:43:50.894Z,100241.46
2017-11-10T23:46:16.689Z,100233.84
2017-11-10T23:48:42.527Z,100243.07
2017-11-10T23:51:08.334Z,100245.61
2017-11-10T23:53:34.157Z,100239.30
2017-11-10T23:55:59.963Z,100238.89
2017-11-10T23:58:25.753Z,100235.97
